Time;durP1;ratioP1;P1;durP2;ratioP2;P2;SDS_P1;SDS_P2;PMS_P1;PMS_P2;Temp;Humidity;BMP_temperature;BMP_pressure;BME280_temperature;BME280_humidity;BME280_pressure;Samples;Min_cycle;Max_cycle;Signal;HPM_P1;HPM_P2
2023/06/14 00:00:39;;;;;;;2.00;1.30;;;;;;;19.04;50.17;101425.25;6176775;28;20057;-75
2023/06/14 00:03:41;;;;;;;3.15;0.90;;;;;;;18.92;50.86;101432.38;6177350;28;20084;-75
2023/06/14 00:06:44;;;;;;;2.58;1.20;;;;;;;18.85;51.55;101439.16;6193144;28;20436;-75
2023/06/14 00:09:46;;;;;;;1.58;1.02;;;;;;;18.79;50.96;101436.09;6177725;28;20061;-75
2023/06/14 00:12:48;;;;;;;1.67;0.90;;;;;;;18.74;51.51;101439.09;6177417;28;20050;-75
2023/06/14 00:15:49;;;;;;;3.53;0.85;;;;;;;18.70;52.17;101440.31;6177377;28;20054;-75
2023/06/14 00:18:52;;;;;;;2.58;1.13;;;;;;;18.72;52.61;101441.91;6176919;28;20047;-74
2023/06/14 00:21:53;;;;;;;1.77;1.40;;;;;;;18.65;52.69;101437.97;6176558;28;20174;-75
2023/06/14 00:24:55;;;;;;;2.03;1.05;;;;;;;18.59;52.72;101446.44;6177265;28;20047;-75
2023/06/14 00:27:57;;;;;;;2.55;1.17;;;;;;;18.44;53.05;101451.09;6179163;28;20481;-75
2023/06/14 00:30:58;;;;;;;1.90;1.20;;;;;;;18.38;53.28;101453.38;6185970;28;20355;-75
2023/06/14 00:34:01;;;;;;;4.60;1.40;;;;;;;18.33;53.67;101448.38;6184232;28;20047;-75
2023/06/14 00:37:02;;;;;;;1.65;1.20;;;;;;;18.35;54.24;101448.25;6181293;28;20050;-75
2023/06/14 00:40:05;;;;;;;2.10;1.00;;;;;;;18.30;54.66;101453.06;6180856;28;20058;-75
2023/06/14 00:43:06;;;;;;;3.75;1.40;;;;;;;18.27;54.67;101453.31;6181392;28;20062;-75
2023/06/14 00:46:07;;;;;;;2.63;1.40;;;;;;;18.23;54.83;101452.69;6181349;28;20074;-75
2023/06/14 00:49:11;;;;;;;1.63;1.02;;;;;;;18.19;55.17;101456.56;6181338;28;20054;-74
2023/06/14 00:52:14;;;;;;;1.73;1.00;;;;;;;18.19;55.37;101456.56;6180183;28;20081;-75
2023/06/14 00:55:15;;;;;;;1.25;1.00;;;;;;;18.19;55.28;101460.06;6181185;28;20050;-75
2023/06/14 00:58:17;;;;;;;2.45;1.13;;;;;;;18.15;55.57;101455.91;6188163;28;20057;-75
2023/06/14 01:01:19;;;;;;;4.13;1.30;;;;;;;18.12;55.79;101463.28;6204810;28;20050;-74
2023/06/14 01:04:22;;;;;;;2.38;1.30;;;;;;;18.06;56.63;101464.59;6203351;28;20104;-75
2023/06/14 01:07:34;;;;;;;3.63;1.10;;;;;;;18.06;56.21;101463.72;6190211;28;20054;-75
2023/06/14 01:10:46;;;;;;;2.83;1.92;;;;;;;18.02;56.75;101463.09;6191748;28;20058;-74
2023/06/14 01:13:48;;;;;;;3.42;1.52;;;;;;;17.93;56.67;101459.31;6193401;28;20061;-75
2023/06/14 01:16:52;;;;;;;1.90;1.30;;;;;;;17.86;57.42;101468.72;6180642;28;20059;-75
2023/06/14 01:19:57;;;;;;;1.42;1.08;;;;;;;17.80;58.01;101469.13;6192469;28;20431;-75
2023/06/14 01:23:00;;;;;;;3.15;1.50;;;;;;;17.79;57.90;101478.06;6183607;28;20046;-75
2023/06/14 01:26:03;;;;;;;1.83;0.98;;;;;;;17.73;57.89;101474.06;6180007;28;20047;-75
2023/06/14 01:29:04;;;;;;;2.13;1.42;;;;;;;17.66;59.10;101475.41;6180256;28;20051;-75
2023/06/14 01:32:08;;;;;;;3.08;1.42;;;;;;;17.62;59.19;101473.94;6179941;28;20061;-75
2023/06/14 01:35:09;;;;;;;2.15;1.40;;;;;;;17.58;59.54;101467.16;6180100;28;20077;-75
2023/06/14 01:38:13;;;;;;;5.22;1.45;;;;;;;17.56;59.64;101471.72;6179400;28;20050;-75
2023/06/14 01:41:16;;;;;;;1.88;1.30;;;;;;;17.54;59.81;101470.13;6179169;28;20058;-75
2023/06/14 01:44:19;;;;;;;5.78;1.98;;;;;;;17.49;60.52;101465.16;6179871;28;20054;-75
2023/06/14 01:47:21;;;;;;;1.75;1.20;;;;;;;17.46;60.42;101474.19;6179972;28;20043;-74
2023/06/14 01:50:22;;;;;;;1.52;1.38;;;;;;;17.42;60.27;101470.03;6179221;28;20046;-75
2023/06/14 01:53:25;;;;;;;5.57;1.60;;;;;;;17.37;61.30;101471.31;6179746;28;20380;-74
2023/06/14 01:56:26;;;;;;;2.13;1.25;;;;;;;17.34;61.20;101468.88;6179556;28;20043;-75
2023/06/14 01:59:28;;;;;;;1.92;1.30;;;;;;;17.31;61.66;101461.13;6179743;28;20055;-75
2023/06/14 02:02:29;;;;;;;2.55;1.33;;;;;;;17.24;61.39;101466.00;6178839;28;20466;-75
2023/06/14 02:05:30;;;;;;;1.95;1.38;;;;;;;17.11;61.69;101470.47;6180712;28;20054;-75
2023/06/14 02:08:33;;;;;;;2.70;1.60;;;;;;;17.00;62.41;101457.94;6179265;28;20042;-75
2023/06/14 02:11:34;;;;;;;2.55;1.10;;;;;;;16.98;62.67;101468.66;6178871;28;20051;-74
2023/06/14 02:14:36;;;;;;;2.90;1.23;;;;;;;16.94;62.61;101466.31;6179365;28;20051;-74
2023/06/14 02:17:37;;;;;;;4.43;1.40;;;;;;;16.88;63.17;101480.88;6181200;28;20058;-75
2023/06/14 02:20:38;;;;;;;2.45;1.30;;;;;;;16.89;63.62;101476.41;6202680;28;20328;-74
2023/06/14 02:23:41;;;;;;;2.15;1.27;;;;;;;16.86;63.31;101482.78;6203302;28;20054;-75
2023/06/14 02:26:43;;;;;;;2.10;1.30;;;;;;;16.78;63.87;101481.59;6202789;28;20379;-75
2023/06/14 02:29:44;;;;;;;2.17;1.50;;;;;;;16.66;63.94;101478.78;6199274;28;20051;-75
2023/06/14 02:32:45;;;;;;;2.92;1.25;;;;;;;16.66;64.75;101475.28;6185740;28;20046;-74
2023/06/14 02:35:47;;;;;;;3.28;1.70;;;;;;;16.63;64.55;101483.47;6202455;28;20054;-75
2023/06/14 02:38:50;;;;;;;2.20;1.40;;;;;;;16.60;64.65;101488.97;6191202;28;20062;-74
2023/06/14 02:41:51;;;;;;;2.13;1.40;;;;;;;16.51;65.63;101487.78;6190048;28;20055;-74
2023/06/14 02:44:52;;;;;;;6.50;1.40;;;;;;;16.55;65.93;101483.97;6202778;28;20046;-74
2023/06/14 02:47:55;;;;;;;3.05;1.83;;;;;;;16.56;66.08;101495.44;6202417;28;20047;-75
2023/06/14 02:50:57;;;;;;;1.83;1.30;;;;;;;16.58;66.51;101496.16;6201632;28;20050;-75
2023/06/14 02:53:59;;;;;;;3.15;1.77;;;;;;;16.57;66.42;101494.47;6189653;28;20058;-74
2023/06/14 02:57:01;;;;;;;4.47;1.88;;;;;;;16.58;66.46;101502.34;6189114;28;20050;-74
2023/06/14 03:00:02;;;;;;;3.42;1.85;;;;;;;16.55;66.70;101505.19;6180150;28;20058;-75
2023/06/14 03:03:04;;;;;;;2.10;1.58;;;;;;;16.48;67.04;101504.72;6184646;28;20054;-74
2023/06/14 03:06:08;;;;;;;3.50;1.90;;;;;;;16.48;67.25;101506.53;6202155;28;20065;-75
2023/06/14 03:09:10;;;;;;;2.28;1.60;;;;;;;16.49;67.38;101514.41;6201322;28;20428;-75
2023/06/14 03:12:11;;;;;;;2.75;1.25;;;;;;;16.45;67.26;101515.56;6191880;28;20057;-74
2023/06/14 03:15:14;;;;;;;1.40;1.30;;;;;;;16.45;67.68;101522.69;6202452;28;20061;-74
2023/06/14 03:18:15;;;;;;;2.63;1.50;;;;;;;16.40;67.74;101519.47;6194954;28;20109;-74
2023/06/14 03:21:17;;;;;;;2.78;1.65;;;;;;;16.30;67.70;101516.56;6200829;28;20129;-75
2023/06/14 03:24:20;;;;;;;2.55;1.50;;;;;;;16.20;68.25;101524.25;6202244;28;20108;-74
2023/06/14 03:27:21;;;;;;;4.82;1.75;;;;;;;16.15;68.90;101529.00;6201933;28;20053;-74
2023/06/14 03:30:22;;;;;;;5.43;1.92;;;;;;;16.10;68.97;101525.81;6199980;28;20046;-75
2023/06/14 03:33:25;;;;;;;2.75;1.60;;;;;;;16.02;69.52;101524.59;6202004;28;20061;-75
2023/06/14 03:36:27;;;;;;;5.28;2.08;;;;;;;15.97;70.18;101530.19;6202004;28;20042;-75
2023/06/14 03:39:30;;;;;;;2.15;1.60;;;;;;;16.00;70.15;101521.19;6201950;28;20625;-75
2023/06/14 03:42:31;;;;;;;2.67;1.58;;;;;;;15.96;70.13;101526.69;6201334;28;20050;-74
2023/06/14 03:45:32;;;;;;;3.30;1.67;;;;;;;15.91;70.53;101531.44;6201792;28;20061;-74
2023/06/14 03:48:34;;;;;;;2.13;1.48;;;;;;;15.90;70.36;101534.19;6201825;28;20053;-75
2023/06/14 03:51:35;;;;;;;4.63;1.60;;;;;;;15.82;70.60;101536.47;6201146;28;20051;-74
2023/06/14 03:54:38;;;;;;;2.75;1.45;;;;;;;15.78;71.60;101540.25;6199945;28;20048;-74
2023/06/14 03:57:40;;;;;;;3.08;1.48;;;;;;;15.82;71.99;101545.25;6185977;28;20077;-75
2023/06/14 04:00:41;;;;;;;5.05;1.50;;;;;;;15.89;72.45;101549.22;6180870;28;20046;-75
2023/06/14 04:03:43;;;;;;;1.50;1.02;;;;;;;15.93;72.56;101555.19;6184937;28;20042;-75
2023/06/14 04:06:48;;;;;;;2.20;1.30;;;;;;;15.95;72.80;101545.34;6177857;28;20054;-74
2023/06/14 04:09:50;;;;;;;2.25;1.70;;;;;;;15.99;72.57;101552.16;6185944;28;20055;-75
2023/06/14 04:12:52;;;;;;;2.30;1.52;;;;;;;15.97;72.70;101562.00;6186992;28;20061;-75
2023/06/14 04:15:54;;;;;;;2.95;1.92;;;;;;;15.93;73.54;101565.78;6188397;28;20054;-75
2023/06/14 04:18:55;;;;;;;2.13;1.45;;;;;;;15.98;73.56;101571.66;6187618;28;20042;-75
2023/06/14 04:21:59;;;;;;;2.38;1.58;;;;;;;16.03;73.24;101580.16;6183181;28;20046;-75
2023/06/14 04:25:01;;;;;;;4.32;1.45;;;;;;;16.06;74.05;101574.69;6185764;28;20046;-74
2023/06/14 04:28:03;;;;;;;3.03;1.67;;;;;;;16.11;73.20;101569.94;6183680;28;20049;-75
2023/06/14 04:31:04;;;;;;;4.80;1.65;;;;;;;16.20;73.20;101577.28;6186275;28;20048;-74
2023/06/14 04:34:06;;;;;;;2.20;1.42;;;;;;;16.31;73.17;101581.94;6186307;28;20042;-74
2023/06/14 04:37:07;;;;;;;3.65;1.60;;;;;;;16.30;72.64;101585.53;6189735;28;20189;-74
2023/06/14 04:40:11;;;;;;;2.25;1.50;;;;;;;16.32;72.39;101588.09;6186714;28;20062;-74
2023/06/14 04:43:13;;;;;;;4.80;1.55;;;;;;;16.22;73.04;101596.63;6188055;28;20169;-75
2023/06/14 04:46:14;;;;;;;2.38;1.75;;;;;;;16.23;72.76;101602.78;6191452;28;20050;-75
2023/06/14 04:49:17;;;;;;;3.03;1.85;;;;;;;16.29;73.23;101596.22;6191446;28;20435;-75
2023/06/14 04:52:20;;;;;;;2.40;1.40;;;;;;;16.28;73.42;101599.84;6185242;28;20620;-75
2023/06/14 04:55:24;;;;;;;3.83;1.58;;;;;;;16.40;72.63;101597.25;6186121;28;20074;-75
2023/06/14 04:58:25;;;;;;;2.60;1.30;;;;;;;16.35;72.93;101596.72;6201824;28;20133;-75
2023/06/14 05:01:27;;;;;;;2.65;1.50;;;;;;;16.42;72.67;101605.13;6190552;28;20057;-75
2023/06/14 05:04:28;;;;;;;4.13;1.77;;;;;;;16.40;72.60;101601.72;6192623;28;20055;-75
2023/06/14 05:07:30;;;;;;;5.32;1.75;;;;;;;16.43;73.08;101609.47;6192372;28;20043;-75
2023/06/14 05:10:34;;;;;;;2.95;1.58;;;;;;;16.53;73.14;101610.56;6190723;28;20050;-74
2023/06/14 05:13:36;;;;;;;3.53;1.40;;;;;;;16.48;73.02;101608.22;6189739;28;20051;-74
2023/06/14 05:16:38;;;;;;;5.68;1.55;;;;;;;16.54;72.57;101612.28;6191355;28;20069;-74
2023/06/14 05:19:40;;;;;;;5.80;2.25;;;;;;;16.54;71.26;101609.66;6193534;28;20074;-74
2023/06/14 05:22:42;;;;;;;2.88;1.50;;;;;;;16.55;72.12;101606.03;6191585;28;20073;-74
2023/06/14 05:25:45;;;;;;;2.97;1.38;;;;;;;16.60;71.58;101613.69;6190250;28;20050;-74
2023/06/14 05:28:46;;;;;;;2.67;1.50;;;;;;;16.69;72.08;101613.94;6201550;28;20482;-74
2023/06/14 05:31:48;;;;;;;4.80;1.48;;;;;;;16.73;72.46;101610.19;6204021;28;20050;-74
2023/06/14 05:34:50;;;;;;;4.10;1.55;;;;;;;16.78;72.23;101622.28;6204785;28;20050;-74
2023/06/14 05:37:51;;;;;;;1.95;1.30;;;;;;;16.78;71.95;101617.00;6202727;28;20420;-74
2023/06/14 05:40:54;;;;;;;3.50;1.27;;;;;;;16.77;71.62;101620.59;6203722;28;20050;-75
2023/06/14 05:43:56;;;;;;;1.10;1.00;;;;;;;16.86;71.20;101625.31;6204523;28;20102;-75
2023/06/14 05:46:57;;;;;;;2.80;1.33;;;;;;;16.88;70.98;101636.66;6204343;28;20399;-75
2023/06/14 05:49:59;;;;;;;8.45;1.50;;;;;;;16.89;71.23;101625.94;6202678;28;20050;-74
2023/06/14 05:53:00;;;;;;;6.88;2.10;;;;;;;16.88;71.21;101624.25;6200554;28;20368;-75
2023/06/14 05:56:03;;;;;;;1.73;1.10;;;;;;;16.89;70.04;101636.56;6195973;28;20051;-75
2023/06/14 05:59:04;;;;;;;1.45;0.95;;;;;;;16.95;70.45;101630.00;6203982;28;20050;-75
2023/06/14 06:02:06;;;;;;;2.15;1.58;;;;;;;17.00;69.06;101625.25;6196436;28;20133;-75
2023/06/14 06:05:08;;;;;;;2.58;1.08;;;;;;;17.05;68.76;101639.06;6202201;28;20112;-75
2023/06/14 06:08:09;;;;;;;3.67;1.80;;;;;;;17.11;67.53;101633.34;6195703;28;20065;-75
2023/06/14 06:11:12;;;;;;;2.08;1.20;;;;;;;17.20;68.18;101638.03;6200932;28;20050;-74
2023/06/14 06:14:13;;;;;;;1.60;1.20;;;;;;;17.24;67.88;101639.53;6195378;28;20482;-74
2023/06/14 06:17:15;;;;;;;1.02;0.95;;;;;;;17.24;66.92;101633.38;6202317;28;20050;-74
2023/06/14 06:20:17;;;;;;;2.42;1.40;;;;;;;17.23;66.37;101637.84;6194738;28;20431;-75
2023/06/14 06:23:18;;;;;;;5.50;1.40;;;;;;;17.25;68.10;101640.38;6195473;28;20192;-75
2023/06/14 06:26:22;;;;;;;1.77;1.00;;;;;;;17.33;68.89;101638.06;6200577;28;20057;-74
2023/06/14 06:29:24;;;;;;;5.18;1.20;;;;;;;17.32;67.18;101640.84;6180217;28;20046;-75
2023/06/14 06:32:25;;;;;;;3.95;1.20;;;;;;;17.34;66.78;101642.41;6178291;28;20349;-74
2023/06/14 06:35:26;;;;;;;2.83;1.40;;;;;;;17.29;67.46;101644.53;6179091;28;20051;-74
2023/06/14 06:38:28;;;;;;;3.28;1.17;;;;;;;17.29;67.62;101647.19;6178846;28;20051;-75
2023/06/14 06:41:31;;;;;;;1.65;1.13;;;;;;;17.36;67.95;101652.97;6178356;28;20055;-74
2023/06/14 06:44:32;;;;;;;3.95;1.67;;;;;;;17.40;67.54;101647.34;6178869;28;20066;-74
2023/06/14 06:47:34;;;;;;;2.97;1.50;;;;;;;17.44;67.44;101655.94;6178406;28;20455;-75
2023/06/14 06:50:35;;;;;;;1.38;1.05;;;;;;;17.48;64.86;101657.44;6178112;28;20459;-74
2023/06/14 06:53:36;;;;;;;3.08;1.27;;;;;;;17.59;66.33;101665.53;6178783;28;20054;-74
2023/06/14 06:56:39;;;;;;;1.45;1.10;;;;;;;17.61;66.00;101663.63;6179886;28;20058;-74
2023/06/14 06:59:40;;;;;;;3.00;1.27;;;;;;;17.62;64.80;101664.47;6192188;28;20379;-74
2023/06/14 07:02:42;;;;;;;1.25;0.90;;;;;;;17.65;64.41;101673.09;6191602;28;20061;-74
2023/06/14 07:05:43;;;;;;;1.75;1.17;;;;;;;17.69;63.23;101668.41;6182480;28;20054;-74
2023/06/14 07:08:45;;;;;;;2.25;0.95;;;;;;;17.66;63.37;101672.13;6177123;28;20047;-75
2023/06/14 07:11:48;;;;;;;2.90;1.02;;;;;;;17.65;63.46;101664.25;6176230;28;20412;-74
2023/06/14 07:14:50;;;;;;;3.25;1.10;;;;;;;17.70;63.25;101668.31;6177538;28;20061;-75
2023/06/14 07:17:52;;;;;;;2.90;0.88;;;;;;;17.78;61.75;101665.16;6184521;28;20054;-75
2023/06/14 07:20:54;;;;;;;2.25;1.05;;;;;;;17.86;62.06;101669.97;6192746;28;20053;-75
2023/06/14 07:23:55;;;;;;;1.67;0.98;;;;;;;17.93;62.63;101655.25;6192484;28;20050;-75
2023/06/14 07:26:58;;;;;;;1.27;0.90;;;;;;;18.00;62.76;101668.03;6200813;28;20053;-75
2023/06/14 07:29:59;;;;;;;1.27;1.17;;;;;;;18.06;61.81;101668.56;6194487;28;20050;-74
2023/06/14 07:33:01;;;;;;;7.35;1.23;;;;;;;18.04;61.25;101663.34;6195820;28;20050;-75
2023/06/14 07:36:02;;;;;;;1.88;1.38;;;;;;;18.04;61.52;101668.69;6196656;28;20332;-75
2023/06/14 07:39:05;;;;;;;1.25;1.10;;;;;;;18.14;60.84;101663.56;6189826;28;20117;-74
2023/06/14 07:42:08;;;;;;;1.58;1.23;;;;;;;18.19;58.91;101659.59;6192058;28;20042;-75
2023/06/14 07:45:10;;;;;;;1.38;1.10;;;;;;;18.25;60.43;101667.13;6195543;28;20050;-75
2023/06/14 07:48:12;;;;;;;3.55;0.93;;;;;;;18.30;59.11;101673.94;6191924;28;20046;-76
2023/06/14 07:51:13;;;;;;;1.70;1.02;;;;;;;18.33;58.84;101674.59;6200484;28;20054;-75
2023/06/14 07:54:14;;;;;;;1.75;1.20;;;;;;;18.32;56.62;101680.88;6201715;28;20431;-74
2023/06/14 07:57:19;;;;;;;1.10;1.00;;;;;;;18.34;57.81;101676.28;6201671;28;20062;-75
2023/06/14 08:00:21;;;;;;;5.25;1.48;;;;;;;18.40;57.76;101677.69;6200919;28;20050;-74
2023/06/14 08:03:24;;;;;;;0.85;0.70;;;;;;;18.48;57.07;101673.47;6201704;28;20061;-74
2023/06/14 08:06:26;;;;;;;1.75;0.80;;;;;;;18.58;56.95;101673.69;6201463;28;20054;-75
2023/06/14 08:09:28;;;;;;;1.95;1.40;;;;;;;18.73;56.29;101675.25;6201138;28;20097;-75
2023/06/14 08:12:31;;;;;;;2.38;1.15;;;;;;;18.75;55.85;101673.31;6200795;28;20050;-75
2023/06/14 08:15:33;;;;;;;1.92;1.27;;;;;;;18.73;56.03;101675.25;6200109;28;20484;-75
2023/06/14 08:18:34;;;;;;;1.77;1.27;;;;;;;18.75;56.66;101673.31;6201583;28;20133;-74
2023/06/14 08:21:36;;;;;;;3.20;1.48;;;;;;;18.74;57.44;101670.78;6200957;28;20046;-75
2023/06/14 08:24:37;;;;;;;1.58;1.08;;;;;;;18.78;58.12;101669.59;6201346;28;20050;-75
2023/06/14 08:27:40;;;;;;;4.57;1.40;;;;;;;18.85;57.00;101670.88;6201473;28;20043;-75
2023/06/14 08:30:42;;;;;;;2.88;1.23;;;;;;;18.84;57.39;101678.94;6200622;28;20074;-75
2023/06/14 08:33:44;;;;;;;2.30;1.02;;;;;;;18.87;57.38;101676.91;6201202;28;20062;-75
2023/06/14 08:36:45;;;;;;;1.23;0.98;;;;;;;18.93;55.80;101676.44;6201295;28;20463;-75
2023/06/14 08:39:47;;;;;;;1.83;0.90;;;;;;;18.97;56.43;101669.94;6198794;28;20508;-75
2023/06/14 08:42:52;;;;;;;1.42;1.00;;;;;;;19.00;58.00;101675.06;6201327;28;20050;-75
2023/06/14 08:45:59;;;;;;;1.40;1.10;;;;;;;19.10;54.87;101672.56;6201000;28;20132;-75
2023/06/14 08:49:02;;;;;;;1.27;0.90;;;;;;;19.21;54.68;101663.75;6203488;28;20519;-74
2023/06/14 08:52:06;;;;;;;1.88;0.90;;;;;;;19.34;55.92;101677.84;6203908;28;20050;-75
2023/06/14 08:55:10;;;;;;;1.13;0.93;;;;;;;19.46;54.35;101671.59;6205582;28;20050;-75
2023/06/14 08:58:14;;;;;;;1.10;1.00;;;;;;;19.54;55.72;101673.69;6205282;28;20057;-75
2023/06/14 09:01:17;;;;;;;1.67;1.10;;;;;;;19.57;55.26;101672.59;6204842;28;20054;-75
2023/06/14 09:04:19;;;;;;;2.00;1.20;;;;;;;19.64;55.22;101673.84;6205251;28;20436;-75
2023/06/14 09:07:20;;;;;;;1.83;1.20;;;;;;;19.79;53.43;101672.66;6203234;28;20405;-75
2023/06/14 09:10:23;;;;;;;1.65;0.90;;;;;;;19.84;53.79;101675.81;6204335;28;20062;-75
2023/06/14 09:13:27;;;;;;;17.55;1.63;;;;;;;19.95;54.07;101672.34;6205017;28;20343;-75
2023/06/14 09:16:28;;;;;;;2.42;0.90;;;;;;;19.90;51.36;101666.53;6204890;28;20046;-75
2023/06/14 09:19:29;;;;;;;1.60;1.10;;;;;;;20.11;51.69;101664.81;6205165;28;20046;-75
2023/06/14 09:22:31;;;;;;;1.42;0.98;;;;;;;20.07;52.86;101673.19;6204282;28;20058;-75
2023/06/14 09:25:32;;;;;;;1.67;1.00;;;;;;;20.32;50.94;101670.28;6204535;28;20423;-75
2023/06/14 09:28:35;;;;;;;2.72;0.88;;;;;;;20.34;51.02;101678.16;6204718;28;20049;-75
2023/06/14 09:31:36;;;;;;;1.33;0.90;;;;;;;20.42;51.11;101673.91;6202286;28;20452;-75
2023/06/14 09:34:38;;;;;;;1.55;0.98;;;;;;;20.43;50.61;101677.41;6204779;28;20428;-74
2023/06/14 09:37:39;;;;;;;4.05;1.38;;;;;;;20.32;51.24;101669.44;6204415;28;20050;-75
2023/06/14 09:40:40;;;;;;;1.23;0.90;;;;;;;20.31;51.78;101665.91;6203609;28;20432;-74
2023/06/14 09:43:45;;;;;;;5.25;1.35;;;;;;;20.40;51.13;101664.34;6204418;28;20050;-74
2023/06/14 09:46:47;;;;;;;1.02;0.90;;;;;;;20.67;50.68;101656.78;6204395;28;20137;-74
2023/06/14 09:49:49;;;;;;;1.00;0.90;;;;;;;20.82;51.26;101662.69;6203548;28;20121;-75
2023/06/14 09:52:53;;;;;;;2.28;1.10;;;;;;;20.92;50.51;101654.78;6204424;28;20058;-74
2023/06/14 09:55:58;;;;;;;4.35;1.42;;;;;;;20.94;50.57;101659.03;6204100;28;20050;-74
2023/06/14 09:59:00;;;;;;;2.33;1.27;;;;;;;20.84;50.79;101650.03;6201552;28;20053;-75
2023/06/14 10:02:10;;;;;;;1.17;0.98;;;;;;;20.82;50.68;101652.00;6202965;28;20054;-75
2023/06/14 10:05:16;;;;;;;2.08;1.27;;;;;;;20.91;50.41;101651.25;6204112;28;20124;-75
2023/06/14 10:08:20;;;;;;;2.42;1.60;;;;;;;21.11;49.08;101656.75;6203837;28;20102;-75
2023/06/14 10:11:22;;;;;;;1.38;1.10;;;;;;;21.26;49.54;101642.13;6203324;28;20054;-75
2023/06/14 10:14:25;;;;;;;2.60;1.63;;;;;;;21.35;50.15;101648.53;6203766;28;20050;-75
2023/06/14 10:17:36;;;;;;;1.20;1.10;;;;;;;21.46;49.18;101649.31;6203692;28;20054;-74
2023/06/14 10:20:42;;;;;;;1.75;1.30;;;;;;;21.67;48.40;101651.16;6202962;28;20048;-75
2023/06/14 10:23:46;;;;;;;1.75;1.13;;;;;;;21.84;47.62;101641.66;6201832;28;20057;-75
2023/06/14 10:26:52;;;;;;;3.35;1.15;;;;;;;21.77;47.71;101647.56;6203336;28;20134;-75
2023/06/14 10:30:08;;;;;;;1.60;1.27;;;;;;;21.75;49.64;101656.69;6202479;28;20056;-75
2023/06/14 10:33:10;;;;;;;6.00;1.98;;;;;;;21.69;49.07;101654.53;6203268;28;20054;-75
2023/06/14 10:36:30;;;;;;;2.00;1.48;;;;;;;21.70;49.17;101657.06;6202967;28;20046;-75
2023/06/14 10:39:32;;;;;;;1.65;1.30;;;;;;;21.78;48.87;101649.25;6203347;28;20050;-74
2023/06/14 10:42:34;;;;;;;1.88;1.30;;;;;;;22.11;47.22;101643.75;6202574;28;20061;-75
2023/06/14 10:45:37;;;;;;;1.65;1.20;;;;;;;22.21;46.72;101650.00;6201423;28;20121;-75
2023/06/14 10:48:41;;;;;;;1.92;1.50;;;;;;;21.98;46.96;101649.31;6178598;28;20444;-75
2023/06/14 10:51:46;;;;;;;1.63;0.88;;;;;;;21.85;47.68;101640.69;6178103;28;20054;-75
2023/06/14 10:55:15;;;;;;;7.75;1.50;;;;;;;21.72;47.36;101640.91;6178552;28;20057;-75
2023/06/14 10:58:17;;;;;;;1.20;1.02;;;;;;;21.61;48.99;101644.47;6178499;28;20050;-75
2023/06/14 11:01:29;;;;;;;3.40;1.73;;;;;;;21.50;48.57;101647.25;6177900;28;20050;-75
2023/06/14 11:04:45;;;;;;;2.88;1.50;;;;;;;21.51;50.47;101639.06;6178417;28;20562;-75
2023/06/14 11:08:06;;;;;;;1.67;1.20;;;;;;;21.51;48.67;101643.59;6178486;28;20058;-75
2023/06/14 11:11:08;;;;;;;2.00;1.20;;;;;;;21.57;49.29;101637.69;6178273;28;20043;-74
2023/06/14 11:14:11;;;;;;;1.67;1.30;;;;;;;21.76;48.40;101640.50;6178361;28;20054;-75
2023/06/14 11:17:14;;;;;;;1.98;1.27;;;;;;;22.31;46.89;101629.50;6177954;28;20047;-75
2023/06/14 11:20:16;;;;;;;2.58;1.42;;;;;;;22.29;45.86;101634.13;6177591;28;20054;-75
2023/06/14 11:23:18;;;;;;;3.60;1.30;;;;;;;22.32;47.04;101633.88;6178109;28;20051;-74
2023/06/14 11:26:27;;;;;;;2.20;1.30;;;;;;;22.22;45.52;101625.81;6177785;28;20051;-75
2023/06/14 11:29:30;;;;;;;1.73;1.08;;;;;;;22.21;47.87;101624.13;6177942;28;20174;-74
2023/06/14 11:32:33;;;;;;;4.68;1.50;;;;;;;22.46;46.94;101621.91;6177403;28;20050;-75
2023/06/14 11:35:35;;;;;;;5.55;1.50;;;;;;;22.98;43.96;101626.09;6177929;28;20051;-74
2023/06/14 11:38:37;;;;;;;1.58;1.33;;;;;;;23.26;44.01;101616.34;6178755;28;20145;-74
2023/06/14 11:41:41;;;;;;;2.38;1.60;;;;;;;23.58;43.75;101617.84;6177253;28;20125;-74
2023/06/14 11:44:42;;;;;;;3.15;1.88;;;;;;;23.79;44.29;101617.66;6177705;28;20054;-74
2023/06/14 11:47:45;;;;;;;2.30;1.20;;;;;;;23.89;43.35;101607.75;6177738;28;20047;-75
2023/06/14 11:50:50;;;;;;;2.47;1.20;;;;;;;23.47;42.53;101604.56;6176874;28;20062;-74
2023/06/14 11:53:52;;;;;;;2.53;1.50;;;;;;;23.10;43.13;101593.78;6177761;28;20050;-74
2023/06/14 11:56:54;;;;;;;1.75;1.40;;;;;;;22.89;44.63;101600.16;6177476;28;20062;-74
2023/06/14 11:59:55;;;;;;;2.17;1.50;;;;;;;22.81;45.58;101599.97;6177092;28;20058;-74
2023/06/14 12:02:59;;;;;;;3.05;1.30;;;;;;;22.81;45.73;101608.00;6178540;28;20058;-75
2023/06/14 12:06:07;;;;;;;4.45;1.58;;;;;;;23.24;43.78;101596.84;6177571;28;20458;-74
2023/06/14 12:09:12;;;;;;;4.68;1.83;;;;;;;23.19;43.33;101603.66;6177355;28;20098;-75
2023/06/14 12:12:14;;;;;;;3.85;1.52;;;;;;;22.89;44.50;101593.88;6176621;28;20103;-74
2023/06/14 12:15:16;;;;;;;2.33;1.70;;;;;;;22.77;45.85;101594.03;6177385;28;20355;-74
2023/06/14 12:18:19;;;;;;;2.90;1.70;;;;;;;23.00;44.79;101593.78;6177442;28;20051;-74
2023/06/14 12:21:23;;;;;;;2.40;1.88;;;;;;;23.01;44.98;101587.44;6176751;28;20698;-74
2023/06/14 12:24:29;;;;;;;4.40;1.75;;;;;;;23.13;45.22;101585.44;6180471;28;20333;-75
2023/06/14 12:27:30;;;;;;;7.28;2.10;;;;;;;23.63;43.27;101591.41;6181803;28;20042;-74
2023/06/14 12:30:32;;;;;;;2.78;2.08;;;;;;;24.19;43.57;101597.69;6182214;28;20185;-75
2023/06/14 12:33:35;;;;;;;2.58;1.90;;;;;;;24.28;42.24;101596.78;6182085;28;20055;-74
2023/06/14 12:36:41;;;;;;;6.57;1.40;;;;;;;24.34;42.77;101589.97;6181597;28;20360;-75
2023/06/14 12:39:42;;;;;;;2.90;1.70;;;;;;;24.73;42.03;101586.03;6181922;28;20056;-75
2023/06/14 12:42:47;;;;;;;2.00;1.60;;;;;;;24.70;41.79;101580.13;6181610;28;20055;-74
2023/06/14 12:45:48;;;;;;;2.67;1.70;;;;;;;24.53;42.89;101579.13;6181757;28;20428;-74
2023/06/14 12:48:50;;;;;;;2.95;1.65;;;;;;;24.36;41.81;101585.31;6181437;28;20050;-75
2023/06/14 12:51:52;;;;;;;6.63;1.90;;;;;;;24.12;42.44;101585.84;6180895;28;20050;-74
2023/06/14 12:54:53;;;;;;;4.35;1.80;;;;;;;23.95;42.61;101585.66;6182582;28;20054;-74
2023/06/14 12:57:54;;;;;;;2.28;1.73;;;;;;;24.12;41.92;101584.03;6181186;28;20455;-74
2023/06/14 13:00:56;;;;;;;3.47;1.80;;;;;;;24.14;42.69;101591.94;6180730;28;20054;-74
2023/06/14 13:03:58;;;;;;;2.55;1.90;;;;;;;23.91;42.00;101588.78;6181091;28;20050;-75
2023/06/14 13:07:00;;;;;;;3.65;1.60;;;;;;;23.89;43.39;101580.91;6181072;28;20440;-74
2023/06/14 13:10:01;;;;;;;1.85;1.50;;;;;;;23.69;43.51;101587.31;6179892;28;20054;-75
2023/06/14 13:13:02;;;;;;;1.70;1.50;;;;;;;23.50;44.91;101581.00;6181168;28;20138;-74
2023/06/14 13:16:04;;;;;;;2.33;1.70;;;;;;;23.39;45.16;101582.97;6180796;28;20058;-74
2023/06/14 13:19:07;;;;;;;2.47;1.60;;;;;;;23.89;44.67;101578.22;6181031;28;20447;-74
2023/06/14 13:22:08;;;;;;;2.08;1.30;;;;;;;24.01;44.08;101574.31;6181183;28;20058;-74
2023/06/14 13:25:10;;;;;;;3.25;1.80;;;;;;;23.98;43.69;101571.06;6180893;28;20057;-74
2023/06/14 13:28:11;;;;;;;3.00;1.67;;;;;;;23.92;43.48;101574.38;6180508;28;20059;-75
2023/06/14 13:31:12;;;;;;;2.25;1.58;;;;;;;23.83;42.73;101567.19;6179834;28;20057;-74
2023/06/14 13:34:15;;;;;;;2.08;1.63;;;;;;;23.89;42.13;101566.59;6180450;28;20043;-75
2023/06/14 13:37:16;;;;;;;4.30;1.65;;;;;;;23.91;41.32;101565.47;6180306;28;20047;-75
2023/06/14 13:40:18;;;;;;;4.63;1.40;;;;;;;23.89;41.09;101580.91;6179831;28;20432;-74
2023/06/14 13:43:19;;;;;;;5.65;1.30;;;;;;;23.92;41.24;101579.75;6180276;28;20449;-75
2023/06/14 13:46:21;;;;;;;3.45;2.20;;;;;;;23.88;41.49;101575.66;6180322;28;20051;-75
2023/06/14 13:49:23;;;;;;;2.55;1.60;;;;;;;23.84;41.70;101574.25;6181243;28;20054;-74
2023/06/14 13:52:25;;;;;;;3.42;1.65;;;;;;;23.82;42.43;101570.88;6179630;28;20066;-74
2023/06/14 13:55:26;;;;;;;3.63;2.28;;;;;;;23.85;42.72;101581.34;6180006;28;20066;-75
2023/06/14 13:58:28;;;;;;;2.95;1.50;;;;;;;23.86;42.96;101578.50;6180095;28;20058;-75
2023/06/14 14:01:29;;;;;;;2.72;1.75;;;;;;;23.88;44.03;101572.97;6179361;28;20047;-74
2023/06/14 14:04:32;;;;;;;2.97;1.50;;;;;;;24.14;42.82;101562.38;6179790;28;20432;-74
2023/06/14 14:07:34;;;;;;;3.40;2.33;;;;;;;24.41;42.70;101557.00;6179702;28;20050;-75